Coral Harbour Airport
CYZS : rendu visible

Aérodrome :











RETROUVEZ-NOUS SUR...

 
LOGIN :

S'inscrire | Disclaimer

   EN    FR    IT 

 









Légende :    VFR   VFR Marginal   IFR   IFR Intensif   IFR Très Intensif
Visi : 
Plafond : 
>= 8 km
>= 3000ft
5 à 8 km
1000 à 3000 ft
1500m à 5 km
500 à 1000 ft
800 à 1500m
200 à 500 ft
< 800m
< 200 ft
Symboles :   Orages  Brouillard  Fortes neiges  Fortes précipitations  Vent > 20 kt






- Altitude de l'aérodrome : 210 ft
- Code IATA : YZS


CYZS - Coral Harbour

DERNIER METAR :
  • 211600Z 07017KT 6SM IC DRSN SCT210 M31/M34 A2938 RMK CI4 SLP961

METARs EXPIRÉS :
  • 211500Z 06018KT 6SM IC DRSN BKN210 M32/M35 A2937 RMK CI5 SLP958
  • 211400Z 07017KT 6SM IC DRSN BKN210 M32/M35 A2936 RMK CI6 SLP956

TAF TAF CYZS
Valide du 21 à 13h jusqu'au 22 à 01h UTC


211238Z 2113/2201 07015KT P6SM SCT140 BKN210
TEMPO 2113/2117 5SM IC BKN140
FM211700 04012KT P6SM FEW140 RMK NXT FCST BY 211900Z



MET'MAP, la Météo Aéronautique d'un coup d'oeil ! - Copyright ORBIFLY Décembre 2007 - Disclaimer

ORBIFLY MET'MAP TEAM :

Programmation & Développement : Alexandra Zaïnal
Sur une idée originale de : Baudouin d'Aumeries
Assistance à la programmation : Marc-Olivier Méhu
Soutien technique & logistique : Manuel Goepfert

Contact : metmap@orbifly.com




SOURCES & CREDITS :

   NOAA       Earth
Advisory